Kezdőlap
METAR-TAF:

METAR-TAF

Repülőterek :

Keokuk Municipal Airport

Keokuk, Iowa, Amerikai Egyesült Államok

földrajzi szélesség: 40-28N, földrajzi hosszúság: 091-26W, magasság: 205 m

Jelenlegi meteorológiai megfigyelések

A jelentés 6 perccel ezelõtt készült, 06:35 UTC
Délkeleti szél 9 kt
Hőmérséklet 14°C
Páratartalom 100%
Légköri nyomás 1005 hPa
Látótávolság: 16.1 km
Kevés felhő 900 lábon

METAR: KEOK 220635Z AUTO 14009KT 10SM FEW009 14/14 A2967 RMK AO2

Idő: 01:41 (06:41 UTC)


TAF: hiányzik

Meteorológiai megfigyelések és előrejelzések több, mint 4000 repülőtéren (METAR és TAF jelentéseket).

A térképen piros és sárga pontok jelzik az elérhető meteorológiai állomásokat.

Mozgassa az egeret a pont fölött, hogy megjelenjen az állomás neve.

Azután kattintson az időjárási megfigyelések és előrejelzések megtekintéséhez.

A térkép megváltoztatása: kattintson a fekete keresztel jelölt zöld gombra ráközelítéshez, a vonallal jelölt zöld gombra távolításhoz, vagy a zöld nyilakra a szomszédos térképek eléréséhez.


METAR-TAF: